sensor_id;sensor_type;location;lat;lon;timestamp;P1;durP1;ratioP1;P2;durP2;ratioP2
6135;SDS011;24008;42.664;23.372;2023-02-02T00:01:12;4.50;;;2.20;;
6135;SDS011;24008;42.664;23.372;2023-02-02T00:03:38;7.70;;;3.47;;
6135;SDS011;24008;42.664;23.372;2023-02-02T00:06:05;6.90;;;2.77;;
6135;SDS011;24008;42.664;23.372;2023-02-02T00:08:32;4.23;;;2.90;;
6135;SDS011;24008;42.664;23.372;2023-02-02T00:11:00;6.07;;;3.13;;
6135;SDS011;24008;42.664;23.372;2023-02-02T00:13:28;6.50;;;2.90;;
6135;SDS011;24008;42.664;23.372;2023-02-02T00:15:55;5.57;;;2.93;;
6135;SDS011;24008;42.664;23.372;2023-02-02T00:18:22;5.13;;;2.97;;
6135;SDS011;24008;42.664;23.372;2023-02-02T00:20:49;3.93;;;2.47;;
6135;SDS011;24008;42.664;23.372;2023-02-02T00:23:16;3.73;;;2.20;;
6135;SDS011;24008;42.664;23.372;2023-02-02T00:25:43;4.17;;;2.57;;
6135;SDS011;24008;42.664;23.372;2023-02-02T00:28:10;4.17;;;2.40;;
6135;SDS011;24008;42.664;23.372;2023-02-02T00:30:38;9.53;;;2.63;;
6135;SDS011;24008;42.664;23.372;2023-02-02T00:33:05;4.50;;;3.10;;
6135;SDS011;24008;42.664;23.372;2023-02-02T00:35:32;6.47;;;2.73;;
6135;SDS011;24008;42.664;23.372;2023-02-02T00:37:58;6.37;;;3.53;;
6135;SDS011;24008;42.664;23.372;2023-02-02T00:40:25;7.37;;;3.00;;
6135;SDS011;24008;42.664;23.372;2023-02-02T00:42:52;6.73;;;2.83;;
6135;SDS011;24008;42.664;23.372;2023-02-02T00:45:19;5.10;;;2.70;;
6135;SDS011;24008;42.664;23.372;2023-02-02T00:47:47;6.07;;;3.47;;
6135;SDS011;24008;42.664;23.372;2023-02-02T00:50:15;4.17;;;2.90;;
6135;SDS011;24008;42.664;23.372;2023-02-02T00:52:44;5.57;;;2.67;;
6135;SDS011;24008;42.664;23.372;2023-02-02T00:55:12;6.10;;;2.83;;
6135;SDS011;24008;42.664;23.372;2023-02-02T00:57:40;6.00;;;3.13;;
6135;SDS011;24008;42.664;23.372;2023-02-02T01:00:11;4.40;;;2.90;;
6135;SDS011;24008;42.664;23.372;2023-02-02T01:02:39;4.20;;;2.70;;
6135;SDS011;24008;42.664;23.372;2023-02-02T01:05:08;7.10;;;2.83;;
6135;SDS011;24008;42.664;23.372;2023-02-02T01:07:36;4.50;;;2.90;;
6135;SDS011;24008;42.664;23.372;2023-02-02T01:10:03;6.57;;;2.97;;
6135;SDS011;24008;42.664;23.372;2023-02-02T01:12:31;5.30;;;2.90;;
6135;SDS011;24008;42.664;23.372;2023-02-02T01:14:58;6.77;;;3.27;;
6135;SDS011;24008;42.664;23.372;2023-02-02T01:17:24;4.87;;;2.73;;
6135;SDS011;24008;42.664;23.372;2023-02-02T01:19:51;4.50;;;2.80;;
6135;SDS011;24008;42.664;23.372;2023-02-02T01:22:19;4.93;;;3.13;;
6135;SDS011;24008;42.664;23.372;2023-02-02T01:24:46;6.00;;;3.20;;
6135;SDS011;24008;42.664;23.372;2023-02-02T01:27:13;4.57;;;3.27;;
6135;SDS011;24008;42.664;23.372;2023-02-02T01:29:40;4.37;;;3.00;;
6135;SDS011;24008;42.664;23.372;2023-02-02T01:32:06;5.47;;;3.23;;
6135;SDS011;24008;42.664;23.372;2023-02-02T01:34:33;6.40;;;4.03;;
6135;SDS011;24008;42.664;23.372;2023-02-02T01:37:00;7.20;;;4.20;;
6135;SDS011;24008;42.664;23.372;2023-02-02T01:39:28;8.87;;;4.90;;
6135;SDS011;24008;42.664;23.372;2023-02-02T01:41:55;8.10;;;4.77;;
6135;SDS011;24008;42.664;23.372;2023-02-02T01:47:28;7.63;;;4.87;;
6135;SDS011;24008;42.664;23.372;2023-02-02T01:49:57;11.57;;;5.50;;
6135;SDS011;24008;42.664;23.372;2023-02-02T01:52:25;9.80;;;6.27;;
6135;SDS011;24008;42.664;23.372;2023-02-02T01:54:56;12.63;;;7.13;;
6135;SDS011;24008;42.664;23.372;2023-02-02T01:57:29;12.07;;;6.40;;
6135;SDS011;24008;42.664;23.372;2023-02-02T02:00:00;9.07;;;5.47;;
6135;SDS011;24008;42.664;23.372;2023-02-02T02:02:30;9.93;;;6.07;;
6135;SDS011;24008;42.664;23.372;2023-02-02T02:04:58;9.90;;;5.50;;
6135;SDS011;24008;42.664;23.372;2023-02-02T02:07:27;9.63;;;5.83;;
6135;SDS011;24008;42.664;23.372;2023-02-02T02:09:56;11.90;;;6.30;;
6135;SDS011;24008;42.664;23.372;2023-02-02T02:12:23;11.93;;;6.03;;
6135;SDS011;24008;42.664;23.372;2023-02-02T02:14:50;9.27;;;5.93;;
6135;SDS011;24008;42.664;23.372;2023-02-02T02:17:53;9.50;;;5.50;;
6135;SDS011;24008;42.664;23.372;2023-02-02T02:24:19;11.47;;;5.47;;
6135;SDS011;24008;42.664;23.372;2023-02-02T02:30:37;7.70;;;4.70;;
6135;SDS011;24008;42.664;23.372;2023-02-02T02:33:19;8.07;;;5.07;;
6135;SDS011;24008;42.664;23.372;2023-02-02T02:36:01;6.30;;;4.67;;
6135;SDS011;24008;42.664;23.372;2023-02-02T02:38:34;8.90;;;5.27;;
6135;SDS011;24008;42.664;23.372;2023-02-02T02:41:07;11.17;;;4.97;;
6135;SDS011;24008;42.664;23.372;2023-02-02T02:43:39;9.53;;;5.67;;
6135;SDS011;24008;42.664;23.372;2023-02-02T02:46:11;8.13;;;5.23;;
6135;SDS011;24008;42.664;23.372;2023-02-02T02:48:40;8.97;;;5.33;;
6135;SDS011;24008;42.664;23.372;2023-02-02T02:54:11;8.13;;;4.83;;
6135;SDS011;24008;42.664;23.372;2023-02-02T02:56:46;9.53;;;4.63;;
6135;SDS011;24008;42.664;23.372;2023-02-02T02:59:23;8.07;;;4.90;;
6135;SDS011;24008;42.664;23.372;2023-02-02T03:02:03;10.23;;;4.47;;
6135;SDS011;24008;42.664;23.372;2023-02-02T03:04:45;7.80;;;5.10;;
6135;SDS011;24008;42.664;23.372;2023-02-02T03:07:22;8.03;;;4.73;;
6135;SDS011;24008;42.664;23.372;2023-02-02T03:09:54;7.67;;;4.27;;
6135;SDS011;24008;42.664;23.372;2023-02-02T03:12:25;8.97;;;4.90;;
6135;SDS011;24008;42.664;23.372;2023-02-02T03:14:52;11.60;;;5.47;;
6135;SDS011;24008;42.664;23.372;2023-02-02T03:17:18;8.40;;;4.70;;
6135;SDS011;24008;42.664;23.372;2023-02-02T03:19:47;9.93;;;5.30;;
6135;SDS011;24008;42.664;23.372;2023-02-02T03:22:13;11.03;;;5.20;;
6135;SDS011;24008;42.664;23.372;2023-02-02T03:24:40;9.10;;;4.80;;
6135;SDS011;24008;42.664;23.372;2023-02-02T03:27:07;8.43;;;5.10;;
6135;SDS011;24008;42.664;23.372;2023-02-02T03:29:34;8.23;;;5.23;;
6135;SDS011;24008;42.664;23.372;2023-02-02T03:32:02;11.20;;;5.47;;
6135;SDS011;24008;42.664;23.372;2023-02-02T03:34:29;7.87;;;4.90;;
6135;SDS011;24008;42.664;23.372;2023-02-02T03:36:57;7.33;;;4.73;;
6135;SDS011;24008;42.664;23.372;2023-02-02T03:39:23;11.00;;;5.03;;
6135;SDS011;24008;42.664;23.372;2023-02-02T03:41:50;7.27;;;4.63;;
6135;SDS011;24008;42.664;23.372;2023-02-02T03:44:17;6.60;;;4.47;;
6135;SDS011;24008;42.664;23.372;2023-02-02T03:46:44;9.63;;;4.57;;
6135;SDS011;24008;42.664;23.372;2023-02-02T03:49:10;6.37;;;4.47;;
6135;SDS011;24008;42.664;23.372;2023-02-02T03:51:37;7.97;;;5.00;;
6135;SDS011;24008;42.664;23.372;2023-02-02T03:54:05;7.80;;;4.90;;
6135;SDS011;24008;42.664;23.372;2023-02-02T03:56:32;8.73;;;5.60;;
6135;SDS011;24008;42.664;23.372;2023-02-02T03:58:59;8.53;;;5.10;;
6135;SDS011;24008;42.664;23.372;2023-02-02T04:01:26;9.00;;;5.37;;
6135;SDS011;24008;42.664;23.372;2023-02-02T04:03:54;8.47;;;5.70;;
6135;SDS011;24008;42.664;23.372;2023-02-02T04:06:21;11.80;;;5.70;;
6135;SDS011;24008;42.664;23.372;2023-02-02T04:08:48;16.23;;;6.53;;
6135;SDS011;24008;42.664;23.372;2023-02-02T04:11:18;9.40;;;6.00;;
6135;SDS011;24008;42.664;23.372;2023-02-02T04:13:44;9.77;;;6.13;;
6135;SDS011;24008;42.664;23.372;2023-02-02T04:16:11;11.10;;;6.57;;
6135;SDS011;24008;42.664;23.372;2023-02-02T04:18:38;11.40;;;6.70;;
6135;SDS011;24008;42.664;23.372;2023-02-02T04:21:06;10.27;;;6.63;;
6135;SDS011;24008;42.664;23.372;2023-02-02T04:23:34;11.10;;;6.40;;
6135;SDS011;24008;42.664;23.372;2023-02-02T04:26:01;9.50;;;6.03;;
6135;SDS011;24008;42.664;23.372;2023-02-02T04:28:29;10.03;;;5.77;;
6135;SDS011;24008;42.664;23.372;2023-02-02T04:30:57;12.17;;;6.57;;
6135;SDS011;24008;42.664;23.372;2023-02-02T04:33:24;9.67;;;5.83;;
6135;SDS011;24008;42.664;23.372;2023-02-02T04:35:52;9.73;;;6.03;;
6135;SDS011;24008;42.664;23.372;2023-02-02T04:38:20;11.57;;;6.53;;
6135;SDS011;24008;42.664;23.372;2023-02-02T04:40:47;11.20;;;6.80;;
6135;SDS011;24008;42.664;23.372;2023-02-02T04:43:14;14.23;;;7.23;;
6135;SDS011;24008;42.664;23.372;2023-02-02T04:45:42;10.57;;;6.47;;
6135;SDS011;24008;42.664;23.372;2023-02-02T04:48:09;8.87;;;6.00;;
6135;SDS011;24008;42.664;23.372;2023-02-02T04:50:35;10.47;;;6.73;;
6135;SDS011;24008;42.664;23.372;2023-02-02T04:53:02;10.63;;;6.80;;
6135;SDS011;24008;42.664;23.372;2023-02-02T04:55:29;9.97;;;5.83;;
6135;SDS011;24008;42.664;23.372;2023-02-02T04:57:56;9.67;;;6.17;;
6135;SDS011;24008;42.664;23.372;2023-02-02T05:00:23;10.10;;;6.03;;
6135;SDS011;24008;42.664;23.372;2023-02-02T05:02:51;9.90;;;6.50;;
6135;SDS011;24008;42.664;23.372;2023-02-02T05:05:17;14.93;;;6.07;;
6135;SDS011;24008;42.664;23.372;2023-02-02T05:07:44;10.73;;;5.80;;
6135;SDS011;24008;42.664;23.372;2023-02-02T05:10:11;9.60;;;6.37;;
6135;SDS011;24008;42.664;23.372;2023-02-02T05:12:38;11.63;;;6.87;;
6135;SDS011;24008;42.664;23.372;2023-02-02T05:15:05;11.30;;;6.30;;
6135;SDS011;24008;42.664;23.372;2023-02-02T05:17:32;11.43;;;6.80;;
6135;SDS011;24008;42.664;23.372;2023-02-02T05:20:00;11.57;;;7.27;;
6135;SDS011;24008;42.664;23.372;2023-02-02T05:22:27;10.97;;;7.53;;
6135;SDS011;24008;42.664;23.372;2023-02-02T05:24:54;16.20;;;7.77;;
6135;SDS011;24008;42.664;23.372;2023-02-02T05:27:21;17.73;;;10.13;;
6135;SDS011;24008;42.664;23.372;2023-02-02T05:29:47;12.70;;;7.40;;
6135;SDS011;24008;42.664;23.372;2023-02-02T05:32:14;15.30;;;8.83;;
6135;SDS011;24008;42.664;23.372;2023-02-02T05:34:41;19.73;;;11.00;;
6135;SDS011;24008;42.664;23.372;2023-02-02T05:37:09;12.17;;;7.13;;
6135;SDS011;24008;42.664;23.372;2023-02-02T05:39:36;14.10;;;6.57;;
6135;SDS011;24008;42.664;23.372;2023-02-02T05:42:02;16.97;;;7.80;;
6135;SDS011;24008;42.664;23.372;2023-02-02T05:44:29;12.00;;;7.10;;
6135;SDS011;24008;42.664;23.372;2023-02-02T05:46:56;13.60;;;7.80;;
6135;SDS011;24008;42.664;23.372;2023-02-02T05:49:23;19.00;;;7.23;;
6135;SDS011;24008;42.664;23.372;2023-02-02T05:51:51;16.20;;;7.70;;
6135;SDS011;24008;42.664;23.372;2023-02-02T05:54:23;17.70;;;9.53;;
6135;SDS011;24008;42.664;23.372;2023-02-02T05:56:50;20.33;;;10.53;;
6135;SDS011;24008;42.664;23.372;2023-02-02T05:59:19;18.77;;;11.50;;
6135;SDS011;24008;42.664;23.372;2023-02-02T06:01:47;21.40;;;12.63;;
6135;SDS011;24008;42.664;23.372;2023-02-02T06:04:14;23.47;;;13.17;;
6135;SDS011;24008;42.664;23.372;2023-02-02T06:06:41;28.47;;;15.90;;
6135;SDS011;24008;42.664;23.372;2023-02-02T06:09:08;27.47;;;16.50;;
6135;SDS011;24008;42.664;23.372;2023-02-02T06:11:37;27.47;;;15.90;;
6135;SDS011;24008;42.664;23.372;2023-02-02T06:14:04;27.87;;;15.97;;
6135;SDS011;24008;42.664;23.372;2023-02-02T06:16:31;30.87;;;16.13;;
6135;SDS011;24008;42.664;23.372;2023-02-02T06:18:58;28.80;;;16.17;;
6135;SDS011;24008;42.664;23.372;2023-02-02T06:21:25;30.43;;;16.73;;
6135;SDS011;24008;42.664;23.372;2023-02-02T06:23:55;29.40;;;16.93;;
6135;SDS011;24008;42.664;23.372;2023-02-02T06:26:22;27.80;;;16.23;;
6135;SDS011;24008;42.664;23.372;2023-02-02T06:28:51;28.23;;;15.83;;
6135;SDS011;24008;42.664;23.372;2023-02-02T06:31:20;26.47;;;15.70;;
6135;SDS011;24008;42.664;23.372;2023-02-02T06:33:47;25.70;;;15.60;;
6135;SDS011;24008;42.664;23.372;2023-02-02T06:36:18;27.53;;;15.73;;
6135;SDS011;24008;42.664;23.372;2023-02-02T06:38:47;28.03;;;16.50;;
6135;SDS011;24008;42.664;23.372;2023-02-02T06:41:14;33.03;;;16.80;;
6135;SDS011;24008;42.664;23.372;2023-02-02T06:43:41;26.00;;;16.03;;
6135;SDS011;24008;42.664;23.372;2023-02-02T06:46:09;23.70;;;13.57;;
6135;SDS011;24008;42.664;23.372;2023-02-02T06:48:36;23.17;;;12.27;;
6135;SDS011;24008;42.664;23.372;2023-02-02T06:51:03;20.63;;;12.90;;
6135;SDS011;24008;42.664;23.372;2023-02-02T06:53:30;21.70;;;12.30;;
6135;SDS011;24008;42.664;23.372;2023-02-02T06:55:57;28.43;;;14.43;;
6135;SDS011;24008;42.664;23.372;2023-02-02T06:58:26;26.20;;;13.93;;
6135;SDS011;24008;42.664;23.372;2023-02-02T07:00:53;26.50;;;14.60;;
6135;SDS011;24008;42.664;23.372;2023-02-02T07:03:21;30.10;;;15.30;;
6135;SDS011;24008;42.664;23.372;2023-02-02T07:05:48;28.73;;;15.70;;
6135;SDS011;24008;42.664;23.372;2023-02-02T07:08:15;25.83;;;14.93;;
6135;SDS011;24008;42.664;23.372;2023-02-02T07:10:42;33.27;;;17.53;;
6135;SDS011;24008;42.664;23.372;2023-02-02T07:13:09;33.00;;;17.27;;
6135;SDS011;24008;42.664;23.372;2023-02-02T07:15:37;32.43;;;17.57;;
6135;SDS011;24008;42.664;23.372;2023-02-02T07:18:04;33.37;;;17.87;;
6135;SDS011;24008;42.664;23.372;2023-02-02T07:20:32;35.57;;;19.33;;
6135;SDS011;24008;42.664;23.372;2023-02-02T07:22:59;42.13;;;21.70;;
6135;SDS011;24008;42.664;23.372;2023-02-02T07:25:28;36.17;;;20.20;;
6135;SDS011;24008;42.664;23.372;2023-02-02T07:27:55;37.67;;;20.30;;
6135;SDS011;24008;42.664;23.372;2023-02-02T07:30:22;37.27;;;20.27;;
6135;SDS011;24008;42.664;23.372;2023-02-02T07:32:49;31.80;;;18.70;;
6135;SDS011;24008;42.664;23.372;2023-02-02T07:35:16;32.83;;;18.43;;
6135;SDS011;24008;42.664;23.372;2023-02-02T07:37:44;33.87;;;18.30;;
6135;SDS011;24008;42.664;23.372;2023-02-02T07:40:17;35.00;;;18.80;;
6135;SDS011;24008;42.664;23.372;2023-02-02T07:42:45;32.20;;;19.57;;
6135;SDS011;24008;42.664;23.372;2023-02-02T07:45:12;36.87;;;21.17;;
6135;SDS011;24008;42.664;23.372;2023-02-02T07:47:39;36.17;;;19.23;;
6135;SDS011;24008;42.664;23.372;2023-02-02T07:50:06;32.37;;;19.00;;
6135;SDS011;24008;42.664;23.372;2023-02-02T07:52:34;32.43;;;18.70;;
6135;SDS011;24008;42.664;23.372;2023-02-02T07:55:02;32.83;;;17.80;;
6135;SDS011;24008;42.664;23.372;2023-02-02T07:57:29;43.83;;;18.37;;
6135;SDS011;24008;42.664;23.372;2023-02-02T07:59:56;39.30;;;19.60;;
6135;SDS011;24008;42.664;23.372;2023-02-02T08:02:23;35.73;;;17.33;;
6135;SDS011;24008;42.664;23.372;2023-02-02T08:04:50;32.03;;;16.37;;
6135;SDS011;24008;42.664;23.372;2023-02-02T08:07:16;34.07;;;15.93;;
6135;SDS011;24008;42.664;23.372;2023-02-02T08:09:45;34.20;;;17.00;;
6135;SDS011;24008;42.664;23.372;2023-02-02T08:12:14;33.93;;;17.20;;
6135;SDS011;24008;42.664;23.372;2023-02-02T08:14:41;36.30;;;17.53;;
6135;SDS011;24008;42.664;23.372;2023-02-02T08:17:07;36.00;;;18.93;;
6135;SDS011;24008;42.664;23.372;2023-02-02T08:19:34;29.20;;;18.27;;
6135;SDS011;24008;42.664;23.372;2023-02-02T08:22:01;33.83;;;18.80;;
6135;SDS011;24008;42.664;23.372;2023-02-02T08:24:28;31.73;;;18.27;;
6135;SDS011;24008;42.664;23.372;2023-02-02T08:26:54;31.80;;;19.30;;
6135;SDS011;24008;42.664;23.372;2023-02-02T08:29:22;31.70;;;18.10;;
6135;SDS011;24008;42.664;23.372;2023-02-02T08:31:49;34.77;;;19.60;;
6135;SDS011;24008;42.664;23.372;2023-02-02T08:34:16;34.73;;;19.57;;
6135;SDS011;24008;42.664;23.372;2023-02-02T08:36:45;37.13;;;19.20;;
6135;SDS011;24008;42.664;23.372;2023-02-02T08:39:12;37.80;;;19.10;;
6135;SDS011;24008;42.664;23.372;2023-02-02T08:41:39;34.17;;;19.73;;
6135;SDS011;24008;42.664;23.372;2023-02-02T08:44:06;34.17;;;19.27;;
6135;SDS011;24008;42.664;23.372;2023-02-02T08:46:35;29.67;;;16.30;;
6135;SDS011;24008;42.664;23.372;2023-02-02T08:49:02;34.23;;;15.93;;
6135;SDS011;24008;42.664;23.372;2023-02-02T08:51:29;30.17;;;14.50;;
6135;SDS011;24008;42.664;23.372;2023-02-02T08:53:55;29.00;;;14.53;;
6135;SDS011;24008;42.664;23.372;2023-02-02T08:56:22;20.90;;;12.20;;
6135;SDS011;24008;42.664;23.372;2023-02-02T08:58:50;22.23;;;12.87;;
6135;SDS011;24008;42.664;23.372;2023-02-02T09:01:18;29.40;;;17.83;;
6135;SDS011;24008;42.664;23.372;2023-02-02T09:03:47;34.23;;;17.90;;
6135;SDS011;24008;42.664;23.372;2023-02-02T09:06:18;28.77;;;16.43;;
6135;SDS011;24008;42.664;23.372;2023-02-02T09:08:45;25.57;;;15.77;;
6135;SDS011;24008;42.664;23.372;2023-02-02T09:11:13;25.47;;;15.73;;
6135;SDS011;24008;42.664;23.372;2023-02-02T09:13:41;25.23;;;14.50;;
6135;SDS011;24008;42.664;23.372;2023-02-02T09:16:11;27.27;;;14.73;;
6135;SDS011;24008;42.664;23.372;2023-02-02T09:18:39;24.80;;;14.57;;
6135;SDS011;24008;42.664;23.372;2023-02-02T09:21:09;26.67;;;14.23;;
6135;SDS011;24008;42.664;23.372;2023-02-02T09:23:38;27.87;;;15.20;;
6135;SDS011;24008;42.664;23.372;2023-02-02T09:26:09;29.80;;;15.60;;
6135;SDS011;24008;42.664;23.372;2023-02-02T09:28:37;26.50;;;14.60;;
6135;SDS011;24008;42.664;23.372;2023-02-02T09:31:04;25.00;;;13.20;;
6135;SDS011;24008;42.664;23.372;2023-02-02T09:33:31;24.90;;;13.50;;
6135;SDS011;24008;42.664;23.372;2023-02-02T09:36:03;26.57;;;14.10;;
6135;SDS011;24008;42.664;23.372;2023-02-02T09:38:32;23.77;;;13.77;;
6135;SDS011;24008;42.664;23.372;2023-02-02T09:40:59;25.20;;;14.33;;
6135;SDS011;24008;42.664;23.372;2023-02-02T09:43:31;27.13;;;13.63;;
6135;SDS011;24008;42.664;23.372;2023-02-02T09:46:10;24.90;;;14.37;;
6135;SDS011;24008;42.664;23.372;2023-02-02T09:48:48;21.77;;;12.30;;
6135;SDS011;24008;42.664;23.372;2023-02-02T09:51:22;17.43;;;9.70;;
6135;SDS011;24008;42.664;23.372;2023-02-02T09:53:55;14.40;;;8.00;;
6135;SDS011;24008;42.664;23.372;2023-02-02T09:56:26;16.03;;;9.03;;
6135;SDS011;24008;42.664;23.372;2023-02-02T09:58:59;20.43;;;10.37;;
6135;SDS011;24008;42.664;23.372;2023-02-02T10:01:29;16.60;;;10.40;;
6135;SDS011;24008;42.664;23.372;2023-02-02T10:04:00;14.70;;;9.40;;
6135;SDS011;24008;42.664;23.372;2023-02-02T10:06:32;15.23;;;8.97;;
6135;SDS011;24008;42.664;23.372;2023-02-02T10:09:07;16.17;;;7.77;;
6135;SDS011;24008;42.664;23.372;2023-02-02T10:11:50;11.80;;;6.03;;
6135;SDS011;24008;42.664;23.372;2023-02-02T10:14:24;15.70;;;7.33;;
6135;SDS011;24008;42.664;23.372;2023-02-02T10:16:57;10.60;;;7.37;;
6135;SDS011;24008;42.664;23.372;2023-02-02T10:19:33;15.23;;;9.17;;
6135;SDS011;24008;42.664;23.372;2023-02-02T10:22:04;14.77;;;9.20;;
6135;SDS011;24008;42.664;23.372;2023-02-02T10:24:37;16.03;;;9.60;;
6135;SDS011;24008;42.664;23.372;2023-02-02T10:27:05;15.97;;;8.73;;
6135;SDS011;24008;42.664;23.372;2023-02-02T10:29:41;12.40;;;8.83;;
6135;SDS011;24008;42.664;23.372;2023-02-02T10:32:19;14.60;;;9.00;;
6135;SDS011;24008;42.664;23.372;2023-02-02T10:35:04;12.73;;;7.33;;
6135;SDS011;24008;42.664;23.372;2023-02-02T10:37:48;16.90;;;8.60;;
6135;SDS011;24008;42.664;23.372;2023-02-02T10:40:25;12.93;;;7.77;;
6135;SDS011;24008;42.664;23.372;2023-02-02T10:43:12;10.47;;;5.90;;
6135;SDS011;24008;42.664;23.372;2023-02-02T10:46:13;8.87;;;4.97;;
6135;SDS011;24008;42.664;23.372;2023-02-02T10:48:44;10.63;;;4.53;;
6135;SDS011;24008;42.664;23.372;2023-02-02T10:51:15;7.13;;;3.10;;
6135;SDS011;24008;42.664;23.372;2023-02-02T10:53:48;6.30;;;3.13;;
6135;SDS011;24008;42.664;23.372;2023-02-02T10:56:18;8.60;;;2.90;;
6135;SDS011;24008;42.664;23.372;2023-02-02T10:58:51;4.97;;;3.00;;
6135;SDS011;24008;42.664;23.372;2023-02-02T11:01:26;4.63;;;2.30;;
6135;SDS011;24008;42.664;23.372;2023-02-02T11:03:53;4.77;;;2.90;;
6135;SDS011;24008;42.664;23.372;2023-02-02T11:06:34;4.83;;;2.50;;
6135;SDS011;24008;42.664;23.372;2023-02-02T11:09:15;5.67;;;3.10;;
6135;SDS011;24008;42.664;23.372;2023-02-02T11:11:46;7.47;;;2.77;;
6135;SDS011;24008;42.664;23.372;2023-02-02T11:14:19;5.50;;;3.13;;
6135;SDS011;24008;42.664;23.372;2023-02-02T11:16:59;6.10;;;2.70;;
6135;SDS011;24008;42.664;23.372;2023-02-02T11:19:28;6.67;;;2.70;;
6135;SDS011;24008;42.664;23.372;2023-02-02T11:21:57;3.67;;;2.60;;
6135;SDS011;24008;42.664;23.372;2023-02-02T11:24:26;7.47;;;3.00;;
6135;SDS011;24008;42.664;23.372;2023-02-02T11:26:56;3.60;;;2.63;;
6135;SDS011;24008;42.664;23.372;2023-02-02T11:29:28;3.30;;;2.07;;
6135;SDS011;24008;42.664;23.372;2023-02-02T11:34:53;3.57;;;2.30;;
6135;SDS011;24008;42.664;23.372;2023-02-02T11:37:50;2.90;;;2.43;;
6135;SDS011;24008;42.664;23.372;2023-02-02T11:40:29;3.73;;;2.53;;
6135;SDS011;24008;42.664;23.372;2023-02-02T11:43:01;5.30;;;2.60;;
6135;SDS011;24008;42.664;23.372;2023-02-02T11:45:32;3.43;;;2.40;;
6135;SDS011;24008;42.664;23.372;2023-02-02T11:48:05;5.67;;;2.27;;
6135;SDS011;24008;42.664;23.372;2023-02-02T11:50:37;4.67;;;2.57;;
6135;SDS011;24008;42.664;23.372;2023-02-02T11:53:04;5.43;;;2.63;;
6135;SDS011;24008;42.664;23.372;2023-02-02T11:55:31;4.20;;;2.70;;
6135;SDS011;24008;42.664;23.372;2023-02-02T12:00:49;4.60;;;2.60;;
6135;SDS011;24008;42.664;23.372;2023-02-02T12:03:22;3.30;;;2.50;;
6135;SDS011;24008;42.664;23.372;2023-02-02T12:05:51;5.77;;;2.70;;
6135;SDS011;24008;42.664;23.372;2023-02-02T12:08:18;5.17;;;2.53;;
6135;SDS011;24008;42.664;23.372;2023-02-02T12:10:47;5.10;;;3.00;;
6135;SDS011;24008;42.664;23.372;2023-02-02T12:13:24;3.93;;;2.60;;
6135;SDS011;24008;42.664;23.372;2023-02-02T12:16:06;4.87;;;2.80;;
6135;SDS011;24008;42.664;23.372;2023-02-02T12:18:57;3.60;;;2.43;;
6135;SDS011;24008;42.664;23.372;2023-02-02T12:21:37;6.30;;;3.03;;
6135;SDS011;24008;42.664;23.372;2023-02-02T12:24:19;4.90;;;2.90;;
6135;SDS011;24008;42.664;23.372;2023-02-02T12:26:56;9.53;;;3.40;;
6135;SDS011;24008;42.664;23.372;2023-02-02T12:29:36;4.43;;;2.77;;
6135;SDS011;24008;42.664;23.372;2023-02-02T12:32:21;6.03;;;3.20;;
6135;SDS011;24008;42.664;23.372;2023-02-02T12:35:01;4.83;;;3.00;;
6135;SDS011;24008;42.664;23.372;2023-02-02T12:37:47;5.40;;;2.87;;
6135;SDS011;24008;42.664;23.372;2023-02-02T12:40:28;3.70;;;2.40;;
6135;SDS011;24008;42.664;23.372;2023-02-02T12:43:09;3.77;;;2.70;;
6135;SDS011;24008;42.664;23.372;2023-02-02T12:45:53;4.70;;;2.80;;
6135;SDS011;24008;42.664;23.372;2023-02-02T12:48:33;2.43;;;1.90;;
6135;SDS011;24008;42.664;23.372;2023-02-02T12:51:15;3.03;;;2.03;;
6135;SDS011;24008;42.664;23.372;2023-02-02T12:53:58;4.77;;;2.30;;
6135;SDS011;24008;42.664;23.372;2023-02-02T12:56:39;3.97;;;2.40;;
6135;SDS011;24008;42.664;23.372;2023-02-02T12:59:12;3.93;;;2.10;;
6135;SDS011;24008;42.664;23.372;2023-02-02T13:01:53;4.27;;;2.10;;
6135;SDS011;24008;42.664;23.372;2023-02-02T13:04:31;5.27;;;2.63;;
6135;SDS011;24008;42.664;23.372;2023-02-02T13:07:24;7.03;;;3.20;;
6135;SDS011;24008;42.664;23.372;2023-02-02T13:10:05;4.23;;;2.30;;
6135;SDS011;24008;42.664;23.372;2023-02-02T13:12:38;3.13;;;2.23;;
6135;SDS011;24008;42.664;23.372;2023-02-02T13:15:08;3.57;;;2.47;;
6135;SDS011;24008;42.664;23.372;2023-02-02T13:17:42;3.73;;;2.10;;
6135;SDS011;24008;42.664;23.372;2023-02-02T13:20:22;4.20;;;2.47;;
6135;SDS011;24008;42.664;23.372;2023-02-02T13:22:55;4.60;;;2.63;;
6135;SDS011;24008;42.664;23.372;2023-02-02T13:25:25;5.63;;;2.70;;
6135;SDS011;24008;42.664;23.372;2023-02-02T13:27:55;4.63;;;3.10;;
6135;SDS011;24008;42.664;23.372;2023-02-02T13:30:27;2.93;;;2.43;;
6135;SDS011;24008;42.664;23.372;2023-02-02T13:32:59;3.87;;;2.53;;
6135;SDS011;24008;42.664;23.372;2023-02-02T13:35:28;4.57;;;2.63;;
6135;SDS011;24008;42.664;23.372;2023-02-02T13:38:00;3.87;;;2.67;;
6135;SDS011;24008;42.664;23.372;2023-02-02T13:40:37;4.93;;;3.40;;
6135;SDS011;24008;42.664;23.372;2023-02-02T13:43:14;5.43;;;3.00;;
6135;SDS011;24008;42.664;23.372;2023-02-02T13:45:51;6.17;;;3.40;;
6135;SDS011;24008;42.664;23.372;2023-02-02T13:48:31;6.20;;;3.30;;
6135;SDS011;24008;42.664;23.372;2023-02-02T13:51:19;4.67;;;2.70;;
6135;SDS011;24008;42.664;23.372;2023-02-02T13:54:08;3.10;;;2.43;;
6135;SDS011;24008;42.664;23.372;2023-02-02T13:56:53;6.50;;;3.10;;
6135;SDS011;24008;42.664;23.372;2023-02-02T13:59:34;3.23;;;2.50;;
6135;SDS011;24008;42.664;23.372;2023-02-02T14:02:16;5.67;;;2.83;;
6135;SDS011;24008;42.664;23.372;2023-02-02T14:04:53;4.60;;;2.37;;
6135;SDS011;24008;42.664;23.372;2023-02-02T14:07:25;4.03;;;2.73;;
6135;SDS011;24008;42.664;23.372;2023-02-02T14:10:02;3.63;;;2.33;;
6135;SDS011;24008;42.664;23.372;2023-02-02T14:12:32;5.37;;;2.60;;
6135;SDS011;24008;42.664;23.372;2023-02-02T14:15:00;4.47;;;2.57;;
6135;SDS011;24008;42.664;23.372;2023-02-02T14:17:48;3.60;;;2.70;;
6135;SDS011;24008;42.664;23.372;2023-02-02T14:26:16;5.20;;;2.70;;
6135;SDS011;24008;42.664;23.372;2023-02-02T14:28:47;5.07;;;2.40;;
6135;SDS011;24008;42.664;23.372;2023-02-02T14:34:33;4.53;;;2.50;;
6135;SDS011;24008;42.664;23.372;2023-02-02T14:40:18;4.10;;;2.40;;
6135;SDS011;24008;42.664;23.372;2023-02-02T14:42:58;4.47;;;2.63;;
6135;SDS011;24008;42.664;23.372;2023-02-02T14:48:47;4.10;;;2.80;;
6135;SDS011;24008;42.664;23.372;2023-02-02T14:51:32;7.27;;;4.43;;
6135;SDS011;24008;42.664;23.372;2023-02-02T14:54:16;7.13;;;4.07;;
6135;SDS011;24008;42.664;23.372;2023-02-02T14:56:50;9.77;;;4.67;;
6135;SDS011;24008;42.664;23.372;2023-02-02T14:59:21;7.13;;;5.03;;
6135;SDS011;24008;42.664;23.372;2023-02-02T15:01:53;16.00;;;9.23;;
6135;SDS011;24008;42.664;23.372;2023-02-02T15:04:26;10.53;;;7.60;;
6135;SDS011;24008;42.664;23.372;2023-02-02T15:06:54;9.83;;;7.57;;
6135;SDS011;24008;42.664;23.372;2023-02-02T15:09:34;11.00;;;7.07;;
6135;SDS011;24008;42.664;23.372;2023-02-02T15:12:17;7.57;;;5.27;;
6135;SDS011;24008;42.664;23.372;2023-02-02T15:15:04;9.00;;;5.63;;
6135;SDS011;24008;42.664;23.372;2023-02-02T15:17:43;7.10;;;5.60;;
6135;SDS011;24008;42.664;23.372;2023-02-02T15:20:18;9.67;;;5.60;;
6135;SDS011;24008;42.664;23.372;2023-02-02T15:22:50;7.67;;;4.97;;
6135;SDS011;24008;42.664;23.372;2023-02-02T15:25:24;6.67;;;4.70;;
6135;SDS011;24008;42.664;23.372;2023-02-02T15:27:58;5.43;;;4.40;;
6135;SDS011;24008;42.664;23.372;2023-02-02T15:30:29;5.60;;;3.87;;
6135;SDS011;24008;42.664;23.372;2023-02-02T15:33:03;4.73;;;3.43;;
6135;SDS011;24008;42.664;23.372;2023-02-02T15:35:46;3.10;;;2.30;;